Flight Track Log - Related Links

Times and Time Zones

All times are in EDT time to prevent confusion due to time zone crossing. See the KAP720 flight status page for this flight to view local times or setup timezone preferences in your user account.

Time Position Orientation Groundspeed Altitude Reporting Facility
EDT Latitude Longitude Course Direction KTS MPH feet Rate Location/Type
Sat 18:01:30 42.3667 -70.9833 132° Southeast 108 124 400  Level KA90
Sat 18:02:54 42.3333 -70.9333 132° Southeast 115 132 1,600 820 Climbing KA90
Sat 18:03:49 42.3167 -70.9000 124° Southeast 117 135 2,300 789 Climbing KA90
Sat 18:04:48 42.3000 -70.8667 124° Southeast 124 143 3,100 605 Climbing KA90
Sat 18:05:48 42.2833 -70.8167 114° Southeast 141 162 3,500 198 Climbing KA90
Sat 18:06:49 42.2500 -70.7833 143° Southeast 148 170 3,500  Level KA90
Sat 18:07:56 42.2167 -70.7500 143° Southeast 148 170 3,500  Level KA90
Sat 18:08:54 42.1833 -70.7333 160° South 148 170 3,500  Level KA90
Sat 18:10:00 42.1480 -70.7081 152° Southeast  Level FlightAware Approximate
Sat 18:17:00 41.9484 -70.4953 139° Southeast  Level FlightAware Approximate
Sat 18:18:00 41.9210 -70.4633 139° Southeast  Level FlightAware Approximate
Sat 18:19:00 41.8935 -70.4313 139° Southeast  Level FlightAware Approximate
Sat 18:20:00 41.8660 -70.3996 155° Southeast  Level FlightAware Approximate
Sat 18:21:00 41.8331 -70.3790 155° Southeast  Level FlightAware Approximate
Sat 18:22:00 41.8002 -70.3584 155° Southeast  Level FlightAware Approximate
Sat 18:23:00 41.7672 -70.3378 155° Southeast  Level FlightAware Approximate
Sat 18:24:00 41.7343 -70.3173 155° Southeast  Level FlightAware Approximate
Sat 18:25:00 41.7026 -70.2936 151° Southeast  Level FlightAware Approximate
Sat 18:26:00 41.6709 -70.2698 151° Southeast  Level FlightAware Approximate
Sat 18:27:00 41.6667 -70.2667 151° Southeast  Level FlightAware Approximate
Sat 18:28:00 41.6693 -70.2804 151° Southeast  Level Estimated
Sat 18:29:00 41.6693 -70.2804 151° Southeast  Level Estimated
Sat 18:30:00 41.6693 -70.2804 151° Southeast  Level Estimated
Sat 18:31:00 41.6693 -70.2804 151° Southeast  Level Estimated
Sat 18:32:00 41.6693 -70.2804 151° Southeast  Level Estimated
Sat 18:33:00 41.6693 -70.2804 151° Southeast  Level Estimated

Login

Don't have an account? Register now (free) for customized features, flight alerts, and more!